Data for 05/18/2013

Time Sea-Level Adjusted Pressure Absolute Pressure Temperature Relative Humidity Dew Point   
(mb) (inHg) (mb) (inHg) (C) (F) (%) (C) (F)
00:05 1016 30 845 24.95 7.9 46.2 93 6.9 44.4
00:10 1016 30 845 24.95 7.9 46.2 93 6.9 44.4
00:15 1016 30 845 24.95 7.9 46.2 93 6.9 44.4
00:20 1016 30 845 24.95 7.9 46.2 93 6.9 44.4
00:25 1016 30 845 24.95 7.7 45.9 93 6.7 44.1
00:30 1016 30 845 24.95 7.7 45.8 94 6.7 44.1
00:35 1016 30 845 24.95 7.7 45.9 94 6.7 44.1
00:40 1016 30 845 24.95 7.7 45.9 94 6.7 44.1
00:45 1016 30 845 24.95 7.8 46 93 6.8 44.2
00:50 1016 30 845 24.95 7.8 46.1 94 6.8 44.3
00:55 1016 30 845 24.95 7.8 46.1 93 6.8 44.3
01:00 1016 30 845 24.95 7.9 46.1 93 6.8 44.2
01:05 1016 30 845 24.95 7.9 46.3 93 6.8 44.3
01:10 1016 30 845 24.95 7.9 46.3 93 6.8 44.3
01:15 1016 30 845 24.95 7.9 46.2 93 6.8 44.3
01:20 1016 30 845 24.95 7.8 46.1 93 6.8 44.2
01:25 1016 30 845 24.95 7.8 46 93 6.8 44.2
01:30 1016 30 845 24.95 7.8 46 94 6.8 44.3
01:35 1016 30 845 24.95 7.6 45.8 93 6.6 43.8
01:40 1016 30 845 24.95 7.4 45.3 93 6.4 43.5
01:45 1016 30 845 24.95 7.3 45.2 93 6.3 43.4
01:50 1016 30 845 24.95 7.3 45.2 94 6.4 43.5
01:55 1016 30 845 24.95 7.4 45.4 94 6.5 43.7
02:00 1016 30 845 24.95 7.4 45.4 93 6.5 43.6
02:05 1016 30 845 24.95 7.4 45.3 94 6.4 43.5
02:10 1016 30 845 24.95 7.4 45.3 93 6.4 43.5
02:15 1016 30 845 24.95 7.3 45.2 93 6.3 43.4
02:20 1016 30 845 24.95 7.3 45.2 93 6.2 43.2
02:25 1016 30 845 24.95 7.3 45.2 92 6.1 43
02:30 1016 30 845 24.95 7.3 45.2 92 6.1 42.9
02:35 1016 30 845 24.95 7.3 45.1 91 5.9 42.6
02:40 1016 30 845 24.95 7.3 45.1 91 5.9 42.6
02:45 1016 30 845 24.95 7.3 45.2 91 5.9 42.7
02:50 1016 30 845 24.95 7.3 45.2 90 5.8 42.4
02:55 1016 30 845 24.95 7.5 45.5 88 5.7 42.2
03:00 1016 30 845 24.95 7.5 45.5 88 5.6 42.2
03:05 1016 30 845 24.95 7.5 45.5 87 5.5 41.8
03:10 1016 30 845 24.95 7.5 45.5 87 5.5 42
03:15 1016 30 845 24.95 7.5 45.6 87 5.6 42.1
03:20 1016 30 845 24.95 7.5 45.5 89 5.8 42.4
03:25 1016 30 845 24.95 7.5 45.4 89 5.8 42.4
03:30 1016 30 845 24.95 7.5 45.6 90 6 42.7
03:35 1016 30 845 24.95 7.6 45.6 90 6.1 42.9
03:40 1016 30 845 24.95 7.6 45.7 90 6.1 43
03:45 1016 30 845 24.95 7.5 45.6 91 6.1 43
03:50 1016 30 845 24.95 7.6 45.6 91 6.3 43.3
03:55 1016 30 845 24.95 7.6 45.7 91 6.3 43.4
04:00 1016 30 845 24.95 7.7 45.8 92 6.4 43.5
04:05 1016 30 845 24.95 7.7 45.9 91 6.4 43.5
04:10 1016 30 845 24.95 7.7 45.9 90 6.2 43.1
04:15 1016 30 845 24.95 7.7 45.8 90 6.1 43
04:20 1016 30 845 24.95 7.7 45.9 90 6.2 43.1
04:25 1016 30 845 24.95 7.7 45.9 90 6.3 43.3
04:30 1016 30 845 24.95 7.8 46 91 6.3 43.4
04:35 1016 30 845 24.95 7.7 45.9 91 6.3 43.3
04:40 1016 30 845 24.95 7.6 45.7 90 6.1 42.9
04:45 1016 30 845 24.95 7.6 45.7 90 6 42.9
04:50 1016 30 845 24.95 7.6 45.7 89 5.9 42.7
04:55 1016 30 845 24.95 7.6 45.7 90 6 42.9
05:00 1016 30 845 24.95 7.6 45.8 90 6.1 42.9
05:05 1016 30 845 24.95 7.6 45.8 89 5.9 42.7
05:10 1016 30 845 24.95 7.6 45.7 89 5.9 42.7
05:15 1016 30 845 24.95 7.6 45.7 89 6 42.8
05:20 1016 30 845 24.95 7.7 45.8 90 6.1 43
05:25 1016 30 845 24.95 7.6 45.7 90 6 42.9
05:30 1016 30 845 24.95 7.5 45.6 91 6.1 43
05:35 1016 30 845 24.95 7.5 45.5 90 6 42.8
05:40 1016 30 845 24.95 7.5 45.6 90 6.1 42.9
05:45 1016 30 845 24.95 7.6 45.6 90 6 42.8
05:50 1016 30 845 24.95 7.6 45.6 91 6.1 43
05:55 1016 30 845 24.95 7.6 45.7 90 6.1 43
06:00 1016 30 845 24.95 7.6 45.6 90 6 42.7
06:05 1016 30 845 24.95 7.6 45.6 90 6 42.7
06:10 1016 30 846 24.98 7.6 45.6 89 5.9 42.6
06:15 1016 30 846 24.98 7.6 45.8 89 5.9 42.7
06:20 1016 30 846 24.98 7.8 46 89 6.1 42.9
06:25 1016 30 846 24.98 7.9 46.2 87 5.9 42.5
06:30 1016 30 846 24.98 7.9 46.2 87 5.9 42.6
06:35 1016 30 846 24.98 8 46.5 88 6.2 43.2
06:40 1016 30 846 24.98 8.2 46.7 86 6 42.7
06:45 1016 30 846 24.98 8.2 46.8 86 6.1 43
06:50 1016 30 846 24.98 8.3 46.9 86 6.1 42.9
06:55 1016 30 846 24.98 8.4 47 85 6 42.9
07:00 1016 30 846 24.98 8.5 47.2 87 6.4 43.5
07:05 1017 30.03 846 24.98 8.7 47.7 85 6.4 43.5
07:10 1017 30.03 846 24.98 8.8 47.9 83 6.1 42.9
07:15 1017 30.03 846 24.98 8.9 47.9 82 6 42.8
07:20 1017 30.03 846 24.98 8.8 47.8 84 6.1 43.1
07:25 1017 30.03 846 24.98 8.9 47.9 84 6.4 43.5
07:30 1017 30.03 846 24.98 9 48.2 83 6.3 43.3
07:35 1017 30.03 846 24.98 9.1 48.4 83 6.4 43.6
07:40 1017 30.03 846 24.98 9.4 48.9 82 6.5 43.7
07:45 1017 30.03 846 24.98 9.5 49.1 82 6.6 43.8
07:50 1017 30.03 846 24.98 9.7 49.4 81 6.6 43.9
07:55 1017 30.03 846 24.98 9.8 49.7 80 6.6 43.8
08:00 1017 30.03 846 24.98 10.1 50.1 78 6.4 43.6
08:05 1017 30.03 846 24.98 10.4 50.7 78 6.8 44.2
08:10 1017 30.03 846 24.98 10.4 50.6 80 7.2 44.9
08:15 1017 30.03 846 24.98 10.2 50.4 82 7.4 45.3
08:20 1017 30.03 846 24.98 10.4 50.6 78 6.7 44.1
08:25 1017 30.03 846 24.98 10.3 50.6 78 6.8 44.2
08:30 1017 30.03 846 24.98 10.3 50.5 78 6.7 44.1
08:35 1017 30.03 846 24.98 10.1 50.2 78 6.5 43.8
08:40 1017 30.03 846 24.98 10 49.9 79 6.5 43.6
08:45 1017 30.03 846 24.98 10 50 78 6.4 43.6
08:50 1017 30.03 846 24.98 10.1 50.2 77 6.3 43.4
08:55 1017 30.03 846 24.98 10.4 50.8 76 6.3 43.4
09:00 1016 30 846 24.98 10.4 50.8 75 6.1 43
09:05 1016 30 846 24.98 10.6 51.1 74 6.1 43
09:10 1016 30 846 24.98 10.9 51.5 73 6.3 43.3
09:15 1016 30 846 24.98 11 51.7 72 6.1 42.9
09:20 1016 30 846 24.98 11.2 52.2 72 6.3 43.3
09:25 1016 30 846 24.98 11.4 52.5 70 6.2 43.2
09:30 1016 30 846 24.98 11.4 52.5 70 6.1 43
09:35 1016 30 845 24.95 11.8 53.2 67 5.9 42.6
09:40 1016 30 845 24.95 11.9 53.4 68 6.3 43.4
09:45 1016 30 845 24.95 12.1 53.8 65 5.7 42.2
09:50 1016 30 845 24.95 12.1 53.8 66 6.1 42.9
09:55 1016 30 845 24.95 12.3 54.1 64 5.7 42.3
10:00 1016 30 845 24.95 12.1 53.7 65 5.7 42.2
10:05 1016 30 845 24.95 11.6 52.8 72 6.8 44.3
10:10 1016 30 845 24.95 11.2 52.1 77 7.2 45
10:15 1016 30 845 24.95 10.5 51 79 7.1 44.8
10:20 1016 30 845 24.95 10 50 79 6.5 43.7
10:25 1016 30 845 24.95 9.8 49.6 78 6.2 43.2
10:30 1016 30 845 24.95 9.5 49.2 79 6.1 43
10:35 1016 30 845 24.95 9.7 49.4 79 6.2 43.1
10:40 1016 30 845 24.95 9.8 49.7 75 5.7 42.2
10:45 1016 30 845 24.95 9.9 49.7 76 5.9 42.6
10:50 1016 30 845 24.95 10.1 50.1 72 5.3 41.6
10:55 1016 30 845 24.95 10.1 50.2 72 5.4 41.7
11:00 1016 30 845 24.95 10.5 50.8 72 5.7 42.2
11:05 1016 30 845 24.95 11 51.8 69 5.6 42
11:10 1016 30 845 24.95 10.8 51.4 68 5.2 41.3
11:15 1016 30 845 24.95 11 51.8 68 5.3 41.6
11:20 1016 30 845 24.95 11.2 52.2 68 5.5 41.9
11:25 1016 30 845 24.95 11.6 52.9 65 5.4 41.7
11:30 1016 30 845 24.95 11.6 52.9 66 5.5 42
11:35 1016 30 845 24.95 11.3 52.3 68 5.6 42
11:40 1016 30 845 24.95 11.5 52.8 64 5.1 41.1
11:45 1016 30 845 24.95 11.7 53.1 63 5 41
11:50 1016 30 845 24.95 12.1 53.8 61 4.9 40.8
11:55 1016 30 845 24.95 12.5 54.5 60 4.9 40.8
12:00 1016 30 845 24.95 13.2 55.7 55 4.5 40.1
12:05 1016 30 845 24.95 13.7 56.6 52 4.1 39.5
12:10 1015 29.97 845 24.95 14.7 58.5 49 4.2 39.5
12:15 1015 29.97 845 24.95 15 59 51 4.9 40.9
12:20 1015 29.97 845 24.95 15.2 59.4 50 4.9 40.9
12:25 1015 29.97 845 24.95 15.2 59.4 50 5 41
12:30 1015 29.97 845 24.95 15.8 60.4 47 4.5 40.1
12:35 1015 29.97 845 24.95 15.8 60.4 46 4.2 39.5
12:40 1015 29.97 845 24.95 15.8 60.5 50 5.4 41.8
12:45 1015 29.97 845 24.95 15 59 49 4.6 40.2
12:50 1015 29.97 845 24.95 14.5 58.1 46 3 37.4
12:55 1015 29.97 845 24.95 14.9 58.8 44 2.8 37
13:00 1015 29.97 844 24.92 14.9 58.8 44 2.9 37.3
13:05 1015 29.97 844 24.92 15.2 59.4 51 5.1 41.3
13:10 1015 29.97 844 24.92 15.4 59.7 51 5.3 41.5
13:15 1015 29.97 844 24.92 14.6 58.2 50 4.4 39.9
13:20 1015 29.97 844 24.92 13.9 57 51 4 39.2
13:25 1015 29.97 844 24.92 13.2 55.8 57 4.9 40.8
13:30 1015 29.97 844 24.92 13 55.4 56 4.5 40.1
13:35 1015 29.97 844 24.92 13.8 56.8 55 4.9 40.9
13:40 1015 29.97 844 24.92 13.7 56.6 56 5.1 41.2
13:45 1015 29.97 844 24.92 13.5 56.3 53 4.3 39.7
13:50 1015 29.97 844 24.92 14.5 58.2 49 4.1 39.4
13:55 1015 29.97 844 24.92 14.3 57.8 50 4 39.3
14:00 1015 29.97 844 24.92 14.2 57.5 51 4.2 39.6
14:05 1015 29.97 844 24.92 14.6 58.3 48 3.8 38.8
14:10 1015 29.97 844 24.92 14.6 58.2 48 3.9 39
14:15 1015 29.97 844 24.92 14.4 58 49 3.9 39.1
14:20 1015 29.97 845 24.95 14.2 57.6 50 4 39.1
14:25 1015 29.97 845 24.95 14.2 57.6 50 4 39.2
14:30 1015 29.97 845 24.95 14.1 57.3 51 4.3 39.7
14:35 1015 29.97 845 24.95 14.1 57.4 49 3.7 38.7
14:40 1015 29.97 845 24.95 14.1 57.4 55 5.2 41.4
14:45 1015 29.97 845 24.95 13.5 56.3 58 5.6 42
14:50 1016 30 845 24.95 12.9 55.2 59 5.2 41.4
14:55 1016 30 845 24.95 12.8 55.1 60 5.4 41.6
15:00 1016 30 845 24.95 12.3 54.1 64 5.7 42.2
15:05 1016 30 845 24.95 11.4 52.5 68 5.6 42.1
15:10 1016 30 845 24.95 11.3 52.3 68 5.6 42.1
15:15 1016 30 845 24.95 11 51.8 69 5.6 42.1
15:20 1016 30 845 24.95 10.6 51.1 72 5.7 42.3
15:25 1016 30 845 24.95 9.7 49.5 74 5.3 41.6
15:30 1016 30 845 24.95 9.9 49.8 73 5.2 41.4
15:35 1016 30 845 24.95 9.8 49.6 75 5.6 42.1
15:40 1016 30 845 24.95 9.5 49.2 76 5.6 42.1
15:45 1016 30 845 24.95 9.5 49.1 78 5.8 42.4
15:50 1016 30 845 24.95 9.5 49 76 5.4 41.7
15:55 1016 30 845 24.95 9.8 49.6 73 5.2 41.3
16:00 1016 30 845 24.95 10 50 72 5.3 41.5
16:05 1016 30 845 24.95 10.3 50.5 69 4.8 40.7
16:10 1016 30 845 24.95 10.7 51.2 65 4.5 40
16:15 1016 30 845 24.95 11 51.7 64 4.4 40
16:20 1016 30 845 24.95 11 51.8 62 4 39.3
16:25 1016 30 845 24.95 11.3 52.3 62 4.3 39.8
16:30 1016 30 845 24.95 11.4 52.5 63 4.7 40.5
16:35 1016 30 845 24.95 11.2 52.1 62 4.1 39.4
16:40 1016 30 845 24.95 11.2 52.2 62 4.2 39.5
16:45 1016 30 845 24.95 11.3 52.4 61 4.2 39.6
16:50 1016 30 845 24.95 11.3 52.4 62 4.3 39.7
16:55 1016 30 845 24.95 11.4 52.4 62 4.4 39.9
17:00 1016 30 845 24.95 11.4 52.5 63 4.6 40.3
17:05 1016 30 845 24.95 11.7 53 62 4.6 40.4
17:10 1016 30 845 24.95 11.8 53.3 57 3.6 38.6
17:15 1016 30 845 24.95 12 53.6 59 4.2 39.6
17:20 1016 30 845 24.95 12.1 53.7 57 3.9 39
17:25 1016 30 845 24.95 12 53.5 60 4.6 40.2
17:30 1016 30 846 24.98 12 53.6 58 4.2 39.5
17:35 1016 30 846 24.98 11.7 53 59 4 39.2
17:40 1016 30 846 24.98 11.8 53.2 58 3.9 39
17:45 1016 30 846 24.98 11.9 53.3 58 3.9 39
17:50 1016 30 846 24.98 11.7 53.1 58 3.8 38.8
17:55 1016 30 846 24.98 11.8 53.2 59 4 39.3
18:00 1016 30 846 24.98 12 53.6 57 3.9 39.1
18:05 1016 30 846 24.98 11.9 53.3 58 4 39.2
18:10 1016 30 846 24.98 11.8 53.2 59 4.1 39.3
18:15 1016 30 845 24.95 11.7 53 58 3.9 38.9
18:20 1016 30 845 24.95 11.8 53.2 58 3.9 39.1
18:25 1016 30 846 24.98 11.9 53.4 58 4 39.1
18:30 1016 30 846 24.98 11.9 53.4 59 4.1 39.4
18:35 1016 30 846 24.98 11.9 53.4 59 4.3 39.7
18:40 1016 30 846 24.98 11.9 53.3 61 4.6 40.3
18:45 1016 30 846 24.98 11.9 53.3 62 4.8 40.6
18:50 1017 30.03 846 24.98 11.6 52.9 63 4.8 40.6
18:55 1017 30.03 846 24.98 11.6 52.8 63 4.8 40.7
19:00 1017 30.03 846 24.98 11.6 52.8 63 4.8 40.7
19:05 1017 30.03 846 24.98 11.5 52.6 65 5.1 41.2
19:10 1017 30.03 846 24.98 10.6 51.1 71 5.6 42
19:15 1017 30.03 846 24.98 9.8 49.6 77 6 42.7
19:20 1017 30.03 846 24.98 9.1 48.4 83 6.4 43.5
19:25 1017 30.03 846 24.98 8.6 47.5 85 6.3 43.4
19:30 1017 30.03 847 25.01 8.4 47.1 88 6.6 43.8
19:35 1018 30.06 847 25.01 8.3 47 89 6.6 43.8
19:40 1018 30.06 847 25.01 8.3 46.9 88 6.5 43.6
19:45 1018 30.06 847 25.01 8.2 46.8 88 6.4 43.5
19:50 1018 30.06 847 25.01 8.2 46.7 89 6.5 43.6
19:55 1018 30.06 847 25.01 8.2 46.7 88 6.4 43.5
20:00 1018 30.06 847 25.01 8.1 46.6 89 6.4 43.6
20:05 1018 30.06 847 25.01 8.1 46.6 90 6.5 43.7
20:10 1018 30.06 847 25.01 8.1 46.5 90 6.5 43.7
20:15 1018 30.06 847 25.01 8 46.5 90 6.6 43.8
20:20 1018 30.06 847 25.01 8 46.3 90 6.4 43.5
20:25 1018 30.06 847 25.01 7.9 46.1 91 6.5 43.8
20:30 1018 30.06 847 25.01 7.9 46.2 91 6.5 43.7
20:35 1018 30.06 847 25.01 7.8 46.1 90 6.3 43.4
20:40 1018 30.06 847 25.01 7.8 46.1 90 6.3 43.3
20:45 1018 30.06 847 25.01 7.8 46.1 90 6.3 43.4
20:50 1018 30.06 847 25.01 7.7 45.9 90 6.1 43
20:55 1018 30.06 848 25.04 7.7 45.8 90 6.1 42.9
21:00 1018 30.06 848 25.04 7.6 45.6 90 6 42.9
21:05 1018 30.06 848 25.04 7.5 45.5 90 6 42.8
21:10 1018 30.06 847 25.01 7.4 45.3 91 6 42.8
21:15 1018 30.06 848 25.04 7.4 45.2 92 6.1 42.9
21:20 1018 30.06 848 25.04 7.4 45.2 92 6.1 43
21:25 1018 30.06 848 25.04 7.2 45 92 6.1 42.9
21:30 1018 30.06 848 25.04 7.1 44.8 93 6 42.8
21:35 1018 30.06 848 25.04 7.1 44.7 93 6 42.7
21:40 1018 30.06 848 25.04 7 44.6 93 5.9 42.7
21:45 1018 30.06 848 25.04 7 44.6 92 5.9 42.5
21:50 1018 30.06 848 25.04 6.9 44.5 92 5.7 42.3
21:55 1018 30.06 847 25.01 6.9 44.4 92 5.7 42.3
22:00 1018 30.06 847 25.01 6.9 44.5 92 5.7 42.2
22:05 1018 30.06 847 25.01 6.9 44.5 91 5.6 42.1
22:10 1018 30.06 847 25.01 6.9 44.5 91 5.5 41.9
22:15 1018 30.06 847 25.01 6.9 44.5 90 5.4 41.7
22:20 1018 30.06 847 25.01 7 44.5 90 5.4 41.6
22:25 1018 30.06 847 25.01 6.9 44.5 89 5.3 41.5
22:30 1018 30.06 847 25.01 7 44.5 89 5.2 41.4
22:35 1018 30.06 847 25.01 6.9 44.5 88 5.1 41.2
22:40 1018 30.06 847 25.01 6.9 44.5 88 5.1 41.2
22:45 1018 30.06 847 25.01 6.9 44.3 88 5 41
22:50 1018 30.06 847 25.01 6.8 44.2 88 5 41
22:55 1018 30.06 847 25.01 6.8 44.2 88 5 41
23:00 1018 30.06 847 25.01 6.8 44.2 88 4.9 40.9
23:05 1018 30.06 847 25.01 6.8 44.2 89 5 41.1
23:10 1018 30.06 847 25.01 6.7 44.1 88 4.9 40.8
23:15 1018 30.06 847 25.01 6.7 44 88 4.8 40.7
23:20 1018 30.06 847 25.01 6.7 44 87 4.6 40.3
23:25 1018 30.06 847 25.01 6.8 44.2 88 4.9 40.7
23:30 1018 30.06 847 25.01 6.7 44 88 4.8 40.7
23:35 1018 30.06 847 25.01 6.5 43.7 89 4.9 40.8
23:40 1018 30.06 847 25.01 6.4 43.6 90 4.8 40.7
23:45 1018 30.06 847 25.01 6.4 43.5 89 4.8 40.6
23:50 1018 30.06 847 25.01 6.4 43.6 90 4.9 40.9
23:55 1018 30.06 847 25.01 6.5 43.8 87 4.6 40.3
24:00 1018 30.06 847 25.01 6.6 44 86 4.4 39.9